sensor_id;sensor_type;location;lat;lon;timestamp;P1;durP1;ratioP1;P2;durP2;ratioP2
11582;SDS011;34299;50.820;4.548;2023-02-15T00:00:37;29.67;;;16.83;;
11582;SDS011;34299;50.820;4.548;2023-02-15T00:03:06;28.03;;;15.40;;
11582;SDS011;34299;50.820;4.548;2023-02-15T00:05:33;35.77;;;20.03;;
11582;SDS011;34299;50.820;4.548;2023-02-15T00:08:00;25.77;;;14.23;;
11582;SDS011;34299;50.820;4.548;2023-02-15T00:10:28;31.23;;;14.57;;
11582;SDS011;34299;50.820;4.548;2023-02-15T00:12:55;29.27;;;15.90;;
11582;SDS011;34299;50.820;4.548;2023-02-15T00:15:22;32.60;;;15.73;;
11582;SDS011;34299;50.820;4.548;2023-02-15T00:17:51;33.97;;;17.97;;
11582;SDS011;34299;50.820;4.548;2023-02-15T00:20:19;31.40;;;15.90;;
11582;SDS011;34299;50.820;4.548;2023-02-15T00:22:46;28.47;;;15.93;;
11582;SDS011;34299;50.820;4.548;2023-02-15T00:25:14;26.20;;;15.63;;
11582;SDS011;34299;50.820;4.548;2023-02-15T00:27:41;28.83;;;14.53;;
11582;SDS011;34299;50.820;4.548;2023-02-15T00:30:08;29.13;;;15.13;;
11582;SDS011;34299;50.820;4.548;2023-02-15T00:32:36;28.10;;;15.63;;
11582;SDS011;34299;50.820;4.548;2023-02-15T00:35:03;29.23;;;15.27;;
11582;SDS011;34299;50.820;4.548;2023-02-15T00:37:33;30.27;;;15.17;;
11582;SDS011;34299;50.820;4.548;2023-02-15T00:40:00;29.80;;;17.23;;
11582;SDS011;34299;50.820;4.548;2023-02-15T00:42:27;29.67;;;16.03;;
11582;SDS011;34299;50.820;4.548;2023-02-15T00:44:54;34.73;;;17.77;;
11582;SDS011;34299;50.820;4.548;2023-02-15T00:47:22;32.90;;;16.00;;
11582;SDS011;34299;50.820;4.548;2023-02-15T00:49:50;36.60;;;16.70;;
11582;SDS011;34299;50.820;4.548;2023-02-15T00:52:17;36.87;;;18.43;;
11582;SDS011;34299;50.820;4.548;2023-02-15T00:54:46;30.83;;;15.37;;
11582;SDS011;34299;50.820;4.548;2023-02-15T00:57:13;26.93;;;15.57;;
11582;SDS011;34299;50.820;4.548;2023-02-15T00:59:40;38.50;;;17.27;;
11582;SDS011;34299;50.820;4.548;2023-02-15T01:02:07;24.70;;;16.17;;
11582;SDS011;34299;50.820;4.548;2023-02-15T01:04:34;35.53;;;18.07;;
11582;SDS011;34299;50.820;4.548;2023-02-15T01:07:02;33.30;;;16.07;;
11582;SDS011;34299;50.820;4.548;2023-02-15T01:09:29;42.63;;;20.40;;
11582;SDS011;34299;50.820;4.548;2023-02-15T01:11:58;30.93;;;17.03;;
11582;SDS011;34299;50.820;4.548;2023-02-15T01:14:25;32.37;;;17.53;;
11582;SDS011;34299;50.820;4.548;2023-02-15T01:16:52;35.13;;;16.23;;
11582;SDS011;34299;50.820;4.548;2023-02-15T01:19:19;30.70;;;16.03;;
11582;SDS011;34299;50.820;4.548;2023-02-15T01:21:46;33.17;;;18.20;;
11582;SDS011;34299;50.820;4.548;2023-02-15T01:24:14;28.30;;;16.27;;
11582;SDS011;34299;50.820;4.548;2023-02-15T01:26:41;28.00;;;14.77;;
11582;SDS011;34299;50.820;4.548;2023-02-15T01:29:10;25.20;;;16.10;;
11582;SDS011;34299;50.820;4.548;2023-02-15T01:31:37;25.77;;;14.83;;
11582;SDS011;34299;50.820;4.548;2023-02-15T01:34:04;27.83;;;14.53;;
11582;SDS011;34299;50.820;4.548;2023-02-15T01:36:33;26.63;;;12.83;;
11582;SDS011;34299;50.820;4.548;2023-02-15T01:39:00;28.87;;;13.37;;
11582;SDS011;34299;50.820;4.548;2023-02-15T01:41:27;22.53;;;13.40;;
11582;SDS011;34299;50.820;4.548;2023-02-15T01:43:56;27.27;;;13.03;;
11582;SDS011;34299;50.820;4.548;2023-02-15T01:46:26;23.07;;;13.73;;
11582;SDS011;34299;50.820;4.548;2023-02-15T01:48:56;25.07;;;15.40;;
11582;SDS011;34299;50.820;4.548;2023-02-15T01:51:25;27.73;;;15.03;;
11582;SDS011;34299;50.820;4.548;2023-02-15T01:53:55;26.67;;;14.33;;
11582;SDS011;34299;50.820;4.548;2023-02-15T01:56:25;28.50;;;17.10;;
11582;SDS011;34299;50.820;4.548;2023-02-15T01:58:54;28.27;;;15.20;;
11582;SDS011;34299;50.820;4.548;2023-02-15T02:01:25;19.27;;;12.33;;
11582;SDS011;34299;50.820;4.548;2023-02-15T02:03:56;23.80;;;14.90;;
11582;SDS011;34299;50.820;4.548;2023-02-15T02:06:24;23.87;;;13.07;;
11582;SDS011;34299;50.820;4.548;2023-02-15T02:08:52;23.37;;;13.07;;
11582;SDS011;34299;50.820;4.548;2023-02-15T02:11:20;24.13;;;14.53;;
11582;SDS011;34299;50.820;4.548;2023-02-15T02:13:47;20.97;;;12.73;;
11582;SDS011;34299;50.820;4.548;2023-02-15T02:16:17;21.03;;;12.07;;
11582;SDS011;34299;50.820;4.548;2023-02-15T02:18:50;24.00;;;14.27;;
11582;SDS011;34299;50.820;4.548;2023-02-15T02:24:08;26.37;;;13.40;;
11582;SDS011;34299;50.820;4.548;2023-02-15T02:26:58;31.90;;;16.10;;
11582;SDS011;34299;50.820;4.548;2023-02-15T02:35:02;23.20;;;12.97;;
11582;SDS011;34299;50.820;4.548;2023-02-15T02:37:34;18.60;;;11.27;;
11582;SDS011;34299;50.820;4.548;2023-02-15T02:40:05;23.20;;;12.13;;
11582;SDS011;34299;50.820;4.548;2023-02-15T02:42:35;25.87;;;13.43;;
11582;SDS011;34299;50.820;4.548;2023-02-15T02:45:03;26.47;;;13.67;;
11582;SDS011;34299;50.820;4.548;2023-02-15T02:47:32;22.73;;;13.80;;
11582;SDS011;34299;50.820;4.548;2023-02-15T02:50:03;23.00;;;13.57;;
11582;SDS011;34299;50.820;4.548;2023-02-15T02:52:35;32.37;;;15.10;;
11582;SDS011;34299;50.820;4.548;2023-02-15T02:55:03;24.53;;;11.23;;
11582;SDS011;34299;50.820;4.548;2023-02-15T02:57:30;25.50;;;11.13;;
11582;SDS011;34299;50.820;4.548;2023-02-15T02:59:59;20.57;;;13.43;;
11582;SDS011;34299;50.820;4.548;2023-02-15T03:02:29;21.43;;;13.03;;
11582;SDS011;34299;50.820;4.548;2023-02-15T03:04:59;28.93;;;13.13;;
11582;SDS011;34299;50.820;4.548;2023-02-15T03:07:30;19.13;;;12.17;;
11582;SDS011;34299;50.820;4.548;2023-02-15T03:09:58;21.37;;;12.43;;
11582;SDS011;34299;50.820;4.548;2023-02-15T03:12:27;28.17;;;13.60;;
11582;SDS011;34299;50.820;4.548;2023-02-15T03:14:55;24.70;;;13.83;;
11582;SDS011;34299;50.820;4.548;2023-02-15T03:17:25;23.43;;;11.80;;
11582;SDS011;34299;50.820;4.548;2023-02-15T03:19:54;21.67;;;13.20;;
11582;SDS011;34299;50.820;4.548;2023-02-15T03:22:23;21.63;;;12.57;;
11582;SDS011;34299;50.820;4.548;2023-02-15T03:24:55;26.97;;;12.30;;
11582;SDS011;34299;50.820;4.548;2023-02-15T03:27:24;28.40;;;13.83;;
11582;SDS011;34299;50.820;4.548;2023-02-15T03:29:52;18.60;;;12.43;;
11582;SDS011;34299;50.820;4.548;2023-02-15T03:32:20;20.93;;;12.60;;
11582;SDS011;34299;50.820;4.548;2023-02-15T03:34:48;23.67;;;12.00;;
11582;SDS011;34299;50.820;4.548;2023-02-15T03:37:16;17.93;;;12.33;;
11582;SDS011;34299;50.820;4.548;2023-02-15T03:39:47;27.10;;;11.67;;
11582;SDS011;34299;50.820;4.548;2023-02-15T03:42:18;22.47;;;11.73;;
11582;SDS011;34299;50.820;4.548;2023-02-15T03:44:47;28.40;;;15.03;;
11582;SDS011;34299;50.820;4.548;2023-02-15T03:47:17;26.10;;;13.07;;
11582;SDS011;34299;50.820;4.548;2023-02-15T03:49:47;23.60;;;12.87;;
11582;SDS011;34299;50.820;4.548;2023-02-15T03:52:15;22.27;;;12.47;;
11582;SDS011;34299;50.820;4.548;2023-02-15T03:54:43;29.43;;;16.40;;
11582;SDS011;34299;50.820;4.548;2023-02-15T03:57:13;24.23;;;13.00;;
11582;SDS011;34299;50.820;4.548;2023-02-15T03:59:59;25.53;;;14.37;;
11582;SDS011;34299;50.820;4.548;2023-02-15T04:02:48;24.00;;;13.83;;
11582;SDS011;34299;50.820;4.548;2023-02-15T04:05:19;24.53;;;14.63;;
11582;SDS011;34299;50.820;4.548;2023-02-15T04:07:46;43.73;;;23.90;;
11582;SDS011;34299;50.820;4.548;2023-02-15T04:10:14;47.17;;;26.93;;
11582;SDS011;34299;50.820;4.548;2023-02-15T04:12:59;45.57;;;25.67;;
11582;SDS011;34299;50.820;4.548;2023-02-15T04:15:27;48.70;;;26.13;;
11582;SDS011;34299;50.820;4.548;2023-02-15T04:18:12;51.70;;;25.77;;
11582;SDS011;34299;50.820;4.548;2023-02-15T04:20:42;43.77;;;25.70;;
11582;SDS011;34299;50.820;4.548;2023-02-15T04:23:27;40.13;;;23.83;;
11582;SDS011;34299;50.820;4.548;2023-02-15T04:26:12;41.70;;;24.63;;
11582;SDS011;34299;50.820;4.548;2023-02-15T04:28:39;43.43;;;24.20;;
11582;SDS011;34299;50.820;4.548;2023-02-15T04:31:08;41.50;;;23.53;;
11582;SDS011;34299;50.820;4.548;2023-02-15T04:33:35;43.90;;;24.67;;
11582;SDS011;34299;50.820;4.548;2023-02-15T04:36:02;40.27;;;24.20;;
11582;SDS011;34299;50.820;4.548;2023-02-15T04:38:30;40.40;;;23.37;;
11582;SDS011;34299;50.820;4.548;2023-02-15T04:40:57;41.90;;;22.60;;
11582;SDS011;34299;50.820;4.548;2023-02-15T04:43:24;35.13;;;21.27;;
11582;SDS011;34299;50.820;4.548;2023-02-15T04:45:51;40.30;;;24.23;;
11582;SDS011;34299;50.820;4.548;2023-02-15T04:48:20;45.57;;;23.90;;
11582;SDS011;34299;50.820;4.548;2023-02-15T04:50:47;40.30;;;22.77;;
11582;SDS011;34299;50.820;4.548;2023-02-15T04:53:14;44.93;;;24.77;;
11582;SDS011;34299;50.820;4.548;2023-02-15T04:55:43;38.73;;;24.87;;
11582;SDS011;34299;50.820;4.548;2023-02-15T04:58:10;42.87;;;24.67;;
11582;SDS011;34299;50.820;4.548;2023-02-15T05:00:37;44.30;;;24.27;;
11582;SDS011;34299;50.820;4.548;2023-02-15T05:03:05;41.73;;;23.13;;
11582;SDS011;34299;50.820;4.548;2023-02-15T05:05:33;45.20;;;24.43;;
11582;SDS011;34299;50.820;4.548;2023-02-15T05:08:00;45.33;;;25.57;;
11582;SDS011;34299;50.820;4.548;2023-02-15T05:10:28;44.47;;;24.20;;
11582;SDS011;34299;50.820;4.548;2023-02-15T05:12:55;42.80;;;23.83;;
11582;SDS011;34299;50.820;4.548;2023-02-15T05:15:22;44.80;;;24.07;;
11582;SDS011;34299;50.820;4.548;2023-02-15T05:17:49;41.20;;;23.03;;
11582;SDS011;34299;50.820;4.548;2023-02-15T05:20:17;39.87;;;23.07;;
11582;SDS011;34299;50.820;4.548;2023-02-15T05:22:45;44.07;;;24.07;;
11582;SDS011;34299;50.820;4.548;2023-02-15T05:25:13;44.80;;;24.93;;
11582;SDS011;34299;50.820;4.548;2023-02-15T05:27:58;42.77;;;23.80;;
11582;SDS011;34299;50.820;4.548;2023-02-15T05:30:43;42.60;;;24.10;;
11582;SDS011;34299;50.820;4.548;2023-02-15T05:33:10;45.40;;;24.97;;
11582;SDS011;34299;50.820;4.548;2023-02-15T05:35:37;46.77;;;24.53;;
11582;SDS011;34299;50.820;4.548;2023-02-15T05:38:06;45.73;;;24.67;;
11582;SDS011;34299;50.820;4.548;2023-02-15T05:40:33;39.17;;;22.97;;
11582;SDS011;34299;50.820;4.548;2023-02-15T05:43:00;44.43;;;25.33;;
11582;SDS011;34299;50.820;4.548;2023-02-15T05:45:28;45.77;;;25.47;;
11582;SDS011;34299;50.820;4.548;2023-02-15T05:47:55;50.13;;;26.53;;
11582;SDS011;34299;50.820;4.548;2023-02-15T05:50:23;48.50;;;25.40;;
11582;SDS011;34299;50.820;4.548;2023-02-15T05:52:50;42.10;;;23.23;;
11582;SDS011;34299;50.820;4.548;2023-02-15T05:55:19;41.13;;;23.30;;
11582;SDS011;34299;50.820;4.548;2023-02-15T05:57:46;45.73;;;23.10;;
11582;SDS011;34299;50.820;4.548;2023-02-15T06:00:13;42.70;;;23.00;;
11582;SDS011;34299;50.820;4.548;2023-02-15T06:02:41;44.20;;;23.43;;
11582;SDS011;34299;50.820;4.548;2023-02-15T06:05:08;45.37;;;23.40;;
11582;SDS011;34299;50.820;4.548;2023-02-15T06:07:35;41.13;;;24.03;;
11582;SDS011;34299;50.820;4.548;2023-02-15T06:10:03;43.40;;;23.57;;
11582;SDS011;34299;50.820;4.548;2023-02-15T06:12:32;39.87;;;22.23;;
11582;SDS011;34299;50.820;4.548;2023-02-15T06:14:59;39.57;;;22.97;;
11582;SDS011;34299;50.820;4.548;2023-02-15T06:17:26;42.13;;;23.63;;
11582;SDS011;34299;50.820;4.548;2023-02-15T06:19:53;38.60;;;22.83;;
11582;SDS011;34299;50.820;4.548;2023-02-15T06:22:20;38.23;;;22.30;;
11582;SDS011;34299;50.820;4.548;2023-02-15T06:24:48;43.70;;;23.57;;
11582;SDS011;34299;50.820;4.548;2023-02-15T06:27:15;40.07;;;21.43;;
11582;SDS011;34299;50.820;4.548;2023-02-15T06:29:43;45.70;;;23.33;;
11582;SDS011;34299;50.820;4.548;2023-02-15T06:32:11;44.47;;;24.73;;
11582;SDS011;34299;50.820;4.548;2023-02-15T06:34:38;43.37;;;25.73;;
11582;SDS011;34299;50.820;4.548;2023-02-15T06:37:05;39.07;;;22.70;;
11582;SDS011;34299;50.820;4.548;2023-02-15T06:39:33;44.27;;;22.60;;
11582;SDS011;34299;50.820;4.548;2023-02-15T06:42:00;33.30;;;21.20;;
11582;SDS011;34299;50.820;4.548;2023-02-15T06:44:28;43.20;;;22.27;;
11582;SDS011;34299;50.820;4.548;2023-02-15T06:46:56;43.77;;;24.07;;
11582;SDS011;34299;50.820;4.548;2023-02-15T06:49:23;46.93;;;24.90;;
11582;SDS011;34299;50.820;4.548;2023-02-15T06:51:51;43.83;;;23.83;;
11582;SDS011;34299;50.820;4.548;2023-02-15T06:54:18;41.10;;;23.93;;
11582;SDS011;34299;50.820;4.548;2023-02-15T06:56:45;50.43;;;22.77;;
11582;SDS011;34299;50.820;4.548;2023-02-15T06:59:12;39.57;;;22.57;;
11582;SDS011;34299;50.820;4.548;2023-02-15T07:01:39;38.37;;;22.37;;
11582;SDS011;34299;50.820;4.548;2023-02-15T07:04:08;38.87;;;22.23;;
11582;SDS011;34299;50.820;4.548;2023-02-15T07:06:36;43.60;;;23.73;;
11582;SDS011;34299;50.820;4.548;2023-02-15T07:09:03;40.93;;;22.83;;
11582;SDS011;34299;50.820;4.548;2023-02-15T07:11:30;44.23;;;23.20;;
11582;SDS011;34299;50.820;4.548;2023-02-15T07:14:15;42.70;;;22.80;;
11582;SDS011;34299;50.820;4.548;2023-02-15T07:16:42;48.57;;;23.87;;
11582;SDS011;34299;50.820;4.548;2023-02-15T07:19:11;46.20;;;23.03;;
11582;SDS011;34299;50.820;4.548;2023-02-15T07:21:38;39.23;;;22.07;;
11582;SDS011;34299;50.820;4.548;2023-02-15T07:24:06;47.27;;;23.50;;
11582;SDS011;34299;50.820;4.548;2023-02-15T07:26:33;38.57;;;23.33;;
11582;SDS011;34299;50.820;4.548;2023-02-15T07:29:00;42.07;;;23.03;;
11582;SDS011;34299;50.820;4.548;2023-02-15T07:31:28;42.50;;;23.50;;
11582;SDS011;34299;50.820;4.548;2023-02-15T07:33:55;43.30;;;23.83;;
11582;SDS011;34299;50.820;4.548;2023-02-15T07:36:24;48.47;;;24.40;;
11582;SDS011;34299;50.820;4.548;2023-02-15T07:38:51;42.13;;;22.40;;
11582;SDS011;34299;50.820;4.548;2023-02-15T07:41:18;39.80;;;22.90;;
11582;SDS011;34299;50.820;4.548;2023-02-15T07:43:45;43.47;;;22.87;;
11582;SDS011;34299;50.820;4.548;2023-02-15T07:46:13;40.73;;;24.97;;
11582;SDS011;34299;50.820;4.548;2023-02-15T07:48:41;43.53;;;23.80;;
11582;SDS011;34299;50.820;4.548;2023-02-15T07:51:09;37.57;;;22.23;;
11582;SDS011;34299;50.820;4.548;2023-02-15T07:53:38;44.77;;;23.37;;
11582;SDS011;34299;50.820;4.548;2023-02-15T07:56:07;42.83;;;22.53;;
11582;SDS011;34299;50.820;4.548;2023-02-15T07:58:34;42.33;;;22.30;;
11582;SDS011;34299;50.820;4.548;2023-02-15T08:01:16;36.57;;;20.63;;
11582;SDS011;34299;50.820;4.548;2023-02-15T08:03:43;21.30;;;13.40;;
11582;SDS011;34299;50.820;4.548;2023-02-15T08:06:11;20.27;;;12.73;;
11582;SDS011;34299;50.820;4.548;2023-02-15T08:08:40;24.30;;;13.83;;
11582;SDS011;34299;50.820;4.548;2023-02-15T08:11:13;26.43;;;16.07;;
11582;SDS011;34299;50.820;4.548;2023-02-15T08:13:59;22.50;;;12.90;;
11582;SDS011;34299;50.820;4.548;2023-02-15T08:16:29;23.10;;;13.57;;
11582;SDS011;34299;50.820;4.548;2023-02-15T08:18:56;28.87;;;14.67;;
11582;SDS011;34299;50.820;4.548;2023-02-15T08:21:24;30.33;;;16.87;;
11582;SDS011;34299;50.820;4.548;2023-02-15T08:23:53;28.07;;;14.97;;
11582;SDS011;34299;50.820;4.548;2023-02-15T08:26:21;32.70;;;16.47;;
11582;SDS011;34299;50.820;4.548;2023-02-15T08:28:48;28.57;;;14.03;;
11582;SDS011;34299;50.820;4.548;2023-02-15T08:31:17;30.87;;;15.57;;
11582;SDS011;34299;50.820;4.548;2023-02-15T08:33:44;28.97;;;16.37;;
11582;SDS011;34299;50.820;4.548;2023-02-15T08:36:13;23.73;;;13.77;;
11582;SDS011;34299;50.820;4.548;2023-02-15T08:38:40;31.73;;;16.80;;
11582;SDS011;34299;50.820;4.548;2023-02-15T08:41:10;26.43;;;15.77;;
11582;SDS011;34299;50.820;4.548;2023-02-15T08:43:37;29.43;;;13.67;;
11582;SDS011;34299;50.820;4.548;2023-02-15T08:46:05;25.97;;;15.03;;
11582;SDS011;34299;50.820;4.548;2023-02-15T08:48:32;31.40;;;15.87;;
11582;SDS011;34299;50.820;4.548;2023-02-15T08:51:03;24.63;;;14.03;;
11582;SDS011;34299;50.820;4.548;2023-02-15T08:53:31;34.23;;;15.87;;
11582;SDS011;34299;50.820;4.548;2023-02-15T08:55:58;31.93;;;16.20;;
11582;SDS011;34299;50.820;4.548;2023-02-15T08:58:27;24.33;;;14.07;;
11582;SDS011;34299;50.820;4.548;2023-02-15T09:00:55;33.10;;;15.93;;
11582;SDS011;34299;50.820;4.548;2023-02-15T09:03:22;29.47;;;16.10;;
11582;SDS011;34299;50.820;4.548;2023-02-15T09:05:49;30.50;;;16.63;;
11582;SDS011;34299;50.820;4.548;2023-02-15T09:08:17;27.33;;;15.37;;
11582;SDS011;34299;50.820;4.548;2023-02-15T09:10:45;29.47;;;15.30;;
11582;SDS011;34299;50.820;4.548;2023-02-15T09:13:12;25.83;;;14.27;;
11582;SDS011;34299;50.820;4.548;2023-02-15T09:15:40;18.60;;;11.17;;
11582;SDS011;34299;50.820;4.548;2023-02-15T09:18:08;21.83;;;12.70;;
11582;SDS011;34299;50.820;4.548;2023-02-15T09:20:37;20.23;;;11.63;;
11582;SDS011;34299;50.820;4.548;2023-02-15T09:23:04;22.47;;;13.37;;
11582;SDS011;34299;50.820;4.548;2023-02-15T09:25:31;27.33;;;14.70;;
11582;SDS011;34299;50.820;4.548;2023-02-15T09:27:58;30.83;;;15.10;;
11582;SDS011;34299;50.820;4.548;2023-02-15T09:30:25;25.07;;;14.27;;
11582;SDS011;34299;50.820;4.548;2023-02-15T09:32:54;28.70;;;14.60;;
11582;SDS011;34299;50.820;4.548;2023-02-15T09:35:21;25.00;;;14.17;;
11582;SDS011;34299;50.820;4.548;2023-02-15T09:37:49;19.87;;;11.33;;
11582;SDS011;34299;50.820;4.548;2023-02-15T09:40:16;29.53;;;14.07;;
11582;SDS011;34299;50.820;4.548;2023-02-15T09:42:48;22.47;;;12.73;;
11582;SDS011;34299;50.820;4.548;2023-02-15T09:45:26;24.47;;;12.00;;
11582;SDS011;34299;50.820;4.548;2023-02-15T09:50:42;21.00;;;11.50;;
11582;SDS011;34299;50.820;4.548;2023-02-15T09:53:17;21.07;;;12.03;;
11582;SDS011;34299;50.820;4.548;2023-02-15T09:55:50;26.10;;;13.23;;
11582;SDS011;34299;50.820;4.548;2023-02-15T09:58:20;19.70;;;10.80;;
11582;SDS011;34299;50.820;4.548;2023-02-15T10:00:50;21.47;;;11.67;;
11582;SDS011;34299;50.820;4.548;2023-02-15T10:03:21;22.00;;;12.23;;
11582;SDS011;34299;50.820;4.548;2023-02-15T10:05:53;18.13;;;11.90;;
11582;SDS011;34299;50.820;4.548;2023-02-15T10:08:29;21.40;;;12.63;;
11582;SDS011;34299;50.820;4.548;2023-02-15T10:11:02;17.67;;;10.27;;
11582;SDS011;34299;50.820;4.548;2023-02-15T10:13:52;21.40;;;11.77;;
11582;SDS011;34299;50.820;4.548;2023-02-15T10:16:22;23.20;;;11.27;;
11582;SDS011;34299;50.820;4.548;2023-02-15T10:18:55;23.70;;;12.17;;
11582;SDS011;34299;50.820;4.548;2023-02-15T10:21:33;25.70;;;13.47;;
11582;SDS011;34299;50.820;4.548;2023-02-15T10:24:19;24.77;;;11.73;;
11582;SDS011;34299;50.820;4.548;2023-02-15T10:26:50;22.37;;;12.93;;
11582;SDS011;34299;50.820;4.548;2023-02-15T10:29:20;20.80;;;11.67;;
11582;SDS011;34299;50.820;4.548;2023-02-15T10:31:54;20.60;;;11.67;;
11582;SDS011;34299;50.820;4.548;2023-02-15T10:34:24;21.30;;;13.03;;
11582;SDS011;34299;50.820;4.548;2023-02-15T10:36:57;18.07;;;9.93;;
11582;SDS011;34299;50.820;4.548;2023-02-15T10:39:31;23.83;;;13.03;;
11582;SDS011;34299;50.820;4.548;2023-02-15T10:42:02;24.97;;;13.40;;
11582;SDS011;34299;50.820;4.548;2023-02-15T10:44:36;21.90;;;12.03;;
11582;SDS011;34299;50.820;4.548;2023-02-15T10:47:15;18.90;;;12.17;;
11582;SDS011;34299;50.820;4.548;2023-02-15T10:49:49;20.67;;;12.10;;
11582;SDS011;34299;50.820;4.548;2023-02-15T10:52:21;22.03;;;12.50;;
11582;SDS011;34299;50.820;4.548;2023-02-15T10:54:55;20.07;;;11.87;;
11582;SDS011;34299;50.820;4.548;2023-02-15T10:57:27;25.13;;;12.93;;
11582;SDS011;34299;50.820;4.548;2023-02-15T10:59:59;22.83;;;12.87;;
11582;SDS011;34299;50.820;4.548;2023-02-15T11:02:33;23.43;;;12.23;;
11582;SDS011;34299;50.820;4.548;2023-02-15T11:05:07;25.80;;;13.77;;
11582;SDS011;34299;50.820;4.548;2023-02-15T11:07:44;22.70;;;14.17;;
11582;SDS011;34299;50.820;4.548;2023-02-15T11:10:18;21.20;;;12.67;;
11582;SDS011;34299;50.820;4.548;2023-02-15T11:12:49;24.33;;;12.60;;
11582;SDS011;34299;50.820;4.548;2023-02-15T11:15:18;21.40;;;13.33;;
11582;SDS011;34299;50.820;4.548;2023-02-15T11:17:48;21.13;;;12.63;;
11582;SDS011;34299;50.820;4.548;2023-02-15T11:20:18;22.53;;;12.80;;
11582;SDS011;34299;50.820;4.548;2023-02-15T11:22:50;22.43;;;11.83;;
11582;SDS011;34299;50.820;4.548;2023-02-15T11:25:19;23.23;;;12.07;;
11582;SDS011;34299;50.820;4.548;2023-02-15T11:27:47;20.73;;;11.30;;
11582;SDS011;34299;50.820;4.548;2023-02-15T11:30:17;23.33;;;13.10;;
11582;SDS011;34299;50.820;4.548;2023-02-15T11:32:46;25.23;;;13.67;;
11582;SDS011;34299;50.820;4.548;2023-02-15T11:35:18;23.83;;;13.57;;
11582;SDS011;34299;50.820;4.548;2023-02-15T11:37:48;23.07;;;13.17;;
11582;SDS011;34299;50.820;4.548;2023-02-15T11:40:19;25.07;;;13.93;;
11582;SDS011;34299;50.820;4.548;2023-02-15T11:42:48;21.63;;;13.00;;
11582;SDS011;34299;50.820;4.548;2023-02-15T11:45:20;23.43;;;13.13;;
11582;SDS011;34299;50.820;4.548;2023-02-15T11:47:48;21.93;;;13.30;;
11582;SDS011;34299;50.820;4.548;2023-02-15T11:50:18;22.47;;;12.20;;
11582;SDS011;34299;50.820;4.548;2023-02-15T11:52:47;24.53;;;13.20;;
11582;SDS011;34299;50.820;4.548;2023-02-15T11:55:17;20.77;;;13.23;;
11582;SDS011;34299;50.820;4.548;2023-02-15T11:57:47;19.30;;;11.87;;
11582;SDS011;34299;50.820;4.548;2023-02-15T12:00:20;22.60;;;13.27;;
11582;SDS011;34299;50.820;4.548;2023-02-15T12:02:52;21.93;;;12.63;;
11582;SDS011;34299;50.820;4.548;2023-02-15T12:05:21;20.20;;;11.93;;
11582;SDS011;34299;50.820;4.548;2023-02-15T12:07:51;20.30;;;11.97;;
11582;SDS011;34299;50.820;4.548;2023-02-15T12:10:20;20.70;;;12.50;;
11582;SDS011;34299;50.820;4.548;2023-02-15T12:12:52;24.53;;;12.77;;
11582;SDS011;34299;50.820;4.548;2023-02-15T12:15:34;20.23;;;12.40;;
11582;SDS011;34299;50.820;4.548;2023-02-15T12:18:02;21.60;;;13.23;;
11582;SDS011;34299;50.820;4.548;2023-02-15T12:20:32;18.87;;;11.47;;
11582;SDS011;34299;50.820;4.548;2023-02-15T12:23:00;23.03;;;12.53;;
11582;SDS011;34299;50.820;4.548;2023-02-15T12:25:29;20.73;;;11.80;;
11582;SDS011;34299;50.820;4.548;2023-02-15T12:28:01;23.07;;;12.30;;
11582;SDS011;34299;50.820;4.548;2023-02-15T12:30:29;23.10;;;12.40;;
11582;SDS011;34299;50.820;4.548;2023-02-15T12:32:59;20.97;;;12.63;;
11582;SDS011;34299;50.820;4.548;2023-02-15T12:35:28;18.90;;;12.00;;
11582;SDS011;34299;50.820;4.548;2023-02-15T12:37:57;26.17;;;12.50;;
11582;SDS011;34299;50.820;4.548;2023-02-15T12:40:27;21.43;;;12.27;;
11582;SDS011;34299;50.820;4.548;2023-02-15T12:42:54;20.43;;;12.67;;
11582;SDS011;34299;50.820;4.548;2023-02-15T12:45:25;22.87;;;12.23;;
11582;SDS011;34299;50.820;4.548;2023-02-15T12:48:08;21.90;;;12.80;;
11582;SDS011;34299;50.820;4.548;2023-02-15T12:50:36;25.37;;;13.50;;
11582;SDS011;34299;50.820;4.548;2023-02-15T12:53:07;23.60;;;13.27;;
11582;SDS011;34299;50.820;4.548;2023-02-15T12:55:34;24.33;;;14.83;;
11582;SDS011;34299;50.820;4.548;2023-02-15T12:58:08;25.50;;;13.10;;
11582;SDS011;34299;50.820;4.548;2023-02-15T13:00:37;26.30;;;12.93;;
11582;SDS011;34299;50.820;4.548;2023-02-15T13:03:04;22.33;;;13.03;;
11582;SDS011;34299;50.820;4.548;2023-02-15T13:05:32;23.47;;;13.33;;
11582;SDS011;34299;50.820;4.548;2023-02-15T13:08:02;22.63;;;13.33;;
11582;SDS011;34299;50.820;4.548;2023-02-15T13:10:31;22.73;;;13.50;;
11582;SDS011;34299;50.820;4.548;2023-02-15T13:13:00;24.90;;;13.33;;
11582;SDS011;34299;50.820;4.548;2023-02-15T13:15:32;27.90;;;14.30;;
11582;SDS011;34299;50.820;4.548;2023-02-15T13:18:02;24.77;;;13.63;;
11582;SDS011;34299;50.820;4.548;2023-02-15T13:20:30;24.57;;;14.70;;
11582;SDS011;34299;50.820;4.548;2023-02-15T13:22:59;24.60;;;13.87;;
11582;SDS011;34299;50.820;4.548;2023-02-15T13:25:31;21.77;;;13.87;;
11582;SDS011;34299;50.820;4.548;2023-02-15T13:28:00;28.40;;;14.43;;
11582;SDS011;34299;50.820;4.548;2023-02-15T13:30:30;25.33;;;14.40;;
11582;SDS011;34299;50.820;4.548;2023-02-15T13:33:01;28.17;;;16.00;;
11582;SDS011;34299;50.820;4.548;2023-02-15T13:35:33;24.13;;;15.10;;
11582;SDS011;34299;50.820;4.548;2023-02-15T13:38:05;28.53;;;15.50;;
11582;SDS011;34299;50.820;4.548;2023-02-15T13:40:33;26.80;;;13.40;;
11582;SDS011;34299;50.820;4.548;2023-02-15T13:43:05;24.00;;;14.40;;
11582;SDS011;34299;50.820;4.548;2023-02-15T13:45:39;25.77;;;14.53;;
11582;SDS011;34299;50.820;4.548;2023-02-15T13:48:15;27.97;;;15.60;;
11582;SDS011;34299;50.820;4.548;2023-02-15T13:50:54;26.13;;;13.63;;
11582;SDS011;34299;50.820;4.548;2023-02-15T13:53:39;27.23;;;14.83;;
11582;SDS011;34299;50.820;4.548;2023-02-15T13:56:12;25.93;;;14.27;;
11582;SDS011;34299;50.820;4.548;2023-02-15T13:58:54;23.97;;;14.50;;
11582;SDS011;34299;50.820;4.548;2023-02-15T14:01:28;29.03;;;14.07;;
11582;SDS011;34299;50.820;4.548;2023-02-15T14:04:20;24.57;;;14.03;;
11582;SDS011;34299;50.820;4.548;2023-02-15T14:06:53;25.50;;;14.07;;
11582;SDS011;34299;50.820;4.548;2023-02-15T14:09:27;25.63;;;14.67;;
11582;SDS011;34299;50.820;4.548;2023-02-15T14:12:01;28.00;;;14.80;;
11582;SDS011;34299;50.820;4.548;2023-02-15T14:17:18;25.33;;;15.20;;
11582;SDS011;34299;50.820;4.548;2023-02-15T14:19:49;24.57;;;14.53;;
11582;SDS011;34299;50.820;4.548;2023-02-15T14:22:20;28.03;;;15.23;;
11582;SDS011;34299;50.820;4.548;2023-02-15T14:24:54;32.77;;;16.20;;
11582;SDS011;34299;50.820;4.548;2023-02-15T14:27:25;25.07;;;14.53;;
11582;SDS011;34299;50.820;4.548;2023-02-15T14:29:54;28.43;;;15.33;;
11582;SDS011;34299;50.820;4.548;2023-02-15T14:32:25;25.23;;;14.53;;
11582;SDS011;34299;50.820;4.548;2023-02-15T14:34:56;25.97;;;15.30;;
11582;SDS011;34299;50.820;4.548;2023-02-15T14:37:27;26.07;;;15.00;;
11582;SDS011;34299;50.820;4.548;2023-02-15T14:39:55;27.07;;;15.00;;
11582;SDS011;34299;50.820;4.548;2023-02-15T14:42:43;24.00;;;14.83;;
11582;SDS011;34299;50.820;4.548;2023-02-15T14:45:15;28.43;;;15.70;;
11582;SDS011;34299;50.820;4.548;2023-02-15T14:47:44;27.90;;;15.47;;
11582;SDS011;34299;50.820;4.548;2023-02-15T14:53:17;28.53;;;15.93;;